createdAt,value
2019-03-23T00:00:41.118Z,61.40
2019-03-23T00:03:12.559Z,60.40
2019-03-23T00:05:43.859Z,66.00
2019-03-23T00:08:15.040Z,62.00
2019-03-23T00:10:46.349Z,67.50
2019-03-23T00:13:17.495Z,66.00
2019-03-23T00:15:49.204Z,66.80
2019-03-23T00:18:20.427Z,63.50
2019-03-23T00:20:52.103Z,62.00
2019-03-23T00:23:23.418Z,53.60
2019-03-23T00:25:54.720Z,64.00
2019-03-23T00:28:25.933Z,59.80
2019-03-23T00:30:57.241Z,67.60
2019-03-23T00:33:28.583Z,63.00
2019-03-23T00:35:59.806Z,64.80
2019-03-23T00:38:31.091Z,66.60
2019-03-23T00:41:02.577Z,73.60
2019-03-23T00:43:33.867Z,67.25
2019-03-23T00:46:05.107Z,74.75
2019-03-23T00:48:36.333Z,68.20
2019-03-23T00:51:08.626Z,69.50
2019-03-23T00:53:39.900Z,67.40
2019-03-23T00:56:11.193Z,79.50
2019-03-23T00:58:42.424Z,66.20
2019-03-23T01:01:13.695Z,72.50
2019-03-23T01:03:44.872Z,69.50
2019-03-23T01:06:16.185Z,73.00
2019-03-23T01:08:47.448Z,76.00
2019-03-23T01:11:18.690Z,68.20
2019-03-23T01:13:49.882Z,73.60
2019-03-23T01:16:21.420Z,70.60
2019-03-23T01:18:52.702Z,72.00
2019-03-23T01:21:24.008Z,70.80
2019-03-23T01:23:55.452Z,65.00
2019-03-23T01:26:26.782Z,66.60
2019-03-23T01:28:58.150Z,72.00
2019-03-23T01:31:29.557Z,66.60
2019-03-23T01:34:00.956Z,72.80
2019-03-23T01:36:32.259Z,63.25
2019-03-23T01:39:04.341Z,70.00
2019-03-23T01:41:35.599Z,74.50
2019-03-23T01:44:06.960Z,73.00
2019-03-23T01:46:38.241Z,68.60
2019-03-23T01:49:09.540Z,72.00
2019-03-23T01:51:41.129Z,65.60
2019-03-23T01:54:13.351Z,69.00
2019-03-23T01:56:44.561Z,72.50
2019-03-23T01:59:15.836Z,70.50
2019-03-23T02:01:47.273Z,75.80
2019-03-23T02:04:18.565Z,72.60
2019-03-23T02:06:49.968Z,63.60
2019-03-23T02:09:21.245Z,68.25
2019-03-23T02:11:52.568Z,72.60
2019-03-23T02:14:23.838Z,68.40
2019-03-23T02:16:55.350Z,72.25
2019-03-23T02:19:26.618Z,76.00
2019-03-23T02:21:57.941Z,67.00
2019-03-23T02:24:29.240Z,73.50
2019-03-23T02:27:00.549Z,71.25
2019-03-23T02:29:31.821Z,75.80
2019-03-23T02:32:03.190Z,67.25
2019-03-23T02:34:34.343Z,71.00
2019-03-23T02:37:05.797Z,73.25
2019-03-23T02:39:37.108Z,66.00
2019-03-23T02:42:08.492Z,69.75
2019-03-23T02:44:39.701Z,67.00
2019-03-23T02:47:10.977Z,65.40
2019-03-23T02:49:42.325Z,68.60
2019-03-23T02:52:13.552Z,70.00
2019-03-23T02:54:44.807Z,64.80
2019-03-23T02:57:16.265Z,72.75
2019-03-23T02:59:47.509Z,69.75
2019-03-23T03:02:18.713Z,61.80
2019-03-23T03:04:50.021Z,74.75
2019-03-23T03:07:21.413Z,67.20
2019-03-23T03:09:52.812Z,67.20
2019-03-23T03:12:23.938Z,70.00
2019-03-23T03:14:55.299Z,64.75
2019-03-23T03:17:26.546Z,67.20
2019-03-23T03:19:57.826Z,67.00
2019-03-23T03:22:30.120Z,67.40
2019-03-23T03:25:01.443Z,68.00
2019-03-23T03:27:33.835Z,64.50
2019-03-23T03:30:05.446Z,61.20
2019-03-23T03:32:36.924Z,69.20
2019-03-23T03:35:08.446Z,70.40
2019-03-23T03:37:39.719Z,60.60
2019-03-23T03:40:11.254Z,67.50
2019-03-23T03:42:42.560Z,67.00
2019-03-23T03:45:21.781Z,67.60
2019-03-23T03:47:53.016Z,60.00
2019-03-23T03:50:24.314Z,69.80
2019-03-23T03:52:55.551Z,62.60
2019-03-23T03:55:26.909Z,74.20
2019-03-23T03:57:58.269Z,62.00
2019-03-23T04:00:29.502Z,70.00
2019-03-23T04:03:00.693Z,64.60
2019-03-23T04:05:32.075Z,70.60
2019-03-23T04:08:11.274Z,62.50
2019-03-23T04:10:36.449Z,70.25
2019-03-23T04:13:07.660Z,65.20
2019-03-23T04:15:39.091Z,65.25
2019-03-23T04:18:10.341Z,66.60
2019-03-23T04:20:41.610Z,70.00
2019-03-23T04:23:12.908Z,65.75
2019-03-23T04:25:45.376Z,70.00
2019-03-23T04:28:16.648Z,62.80
2019-03-23T04:30:47.934Z,67.60
2019-03-23T04:33:19.324Z,64.80
2019-03-23T04:35:50.748Z,67.00
2019-03-23T04:38:23.206Z,68.60
2019-03-23T04:40:54.754Z,67.80
2019-03-23T04:43:26.029Z,64.50
2019-03-23T04:45:57.344Z,67.20
2019-03-23T04:48:28.743Z,63.50
2019-03-23T04:50:59.938Z,61.00
2019-03-23T04:53:31.428Z,65.00
2019-03-23T04:56:03.788Z,63.40
2019-03-23T04:58:35.064Z,57.75
2019-03-23T05:01:06.462Z,66.00
2019-03-23T05:03:37.746Z,66.40
2019-03-23T05:06:09.037Z,61.00
2019-03-23T05:08:40.249Z,59.00
2019-03-23T05:11:11.646Z,62.60
2019-03-23T05:13:42.809Z,63.25
2019-03-23T05:16:14.228Z,62.50
2019-03-23T05:18:45.609Z,60.00
2019-03-23T05:21:16.794Z,65.00
2019-03-23T05:23:48.020Z,68.20
2019-03-23T05:26:19.298Z,65.50
2019-03-23T05:28:50.624Z,63.00
2019-03-23T05:31:23.003Z,61.50
2019-03-23T05:33:54.328Z,64.60
2019-03-23T05:36:25.637Z,59.50
2019-03-23T05:38:57.026Z,65.00
2019-03-23T05:41:28.314Z,65.00
2019-03-23T05:43:59.493Z,66.20
2019-03-23T05:46:30.701Z,61.40
2019-03-23T05:49:01.988Z,64.75
2019-03-23T05:51:33.293Z,65.40
2019-03-23T05:54:04.592Z,63.40
2019-03-23T05:56:35.982Z,69.25
2019-03-23T05:59:07.290Z,58.00
2019-03-23T06:01:38.458Z,66.50
2019-03-23T06:04:09.678Z,66.75
2019-03-23T06:06:41.160Z,66.00
2019-03-23T06:09:12.412Z,61.40
2019-03-23T06:11:43.696Z,64.20
2019-03-23T06:14:14.869Z,64.40
2019-03-23T06:16:46.052Z,65.50
2019-03-23T06:19:17.384Z,63.75
2019-03-23T06:21:48.798Z,71.40
2019-03-23T06:24:20.048Z,59.40
2019-03-23T06:26:51.333Z,64.40
2019-03-23T06:29:22.740Z,70.60
2019-03-23T06:31:54.036Z,64.25
2019-03-23T06:34:25.344Z,74.00
2019-03-23T06:36:56.627Z,65.00
2019-03-23T06:39:27.923Z,60.40
2019-03-23T06:41:59.324Z,67.80
2019-03-23T06:44:30.624Z,64.20
2019-03-23T06:47:01.897Z,70.25
2019-03-23T06:49:33.215Z,64.25
2019-03-23T06:52:04.492Z,63.25
2019-03-23T06:54:35.812Z,64.80
2019-03-23T06:57:07.284Z,66.50
2019-03-23T06:59:38.535Z,64.60
2019-03-23T07:02:10.001Z,93.00
2019-03-23T07:04:41.221Z,81.60
2019-03-23T07:07:12.493Z,86.80
2019-03-23T07:09:43.796Z,68.75
2019-03-23T07:12:15.263Z,80.00
2019-03-23T07:14:46.590Z,67.40
2019-03-23T07:17:17.803Z,63.20
2019-03-23T07:19:49.075Z,68.00
2019-03-23T07:22:20.351Z,69.80
2019-03-23T07:24:51.570Z,66.20
2019-03-23T07:27:22.867Z,68.20
2019-03-23T07:29:54.040Z,67.60
2019-03-23T07:32:25.192Z,71.20
2019-03-23T07:34:56.358Z,67.75
2019-03-23T07:37:27.779Z,66.80
2019-03-23T07:39:59.042Z,70.20
2019-03-23T07:42:30.571Z,70.00
2019-03-23T07:45:01.835Z,68.00
2019-03-23T07:47:33.231Z,69.50
2019-03-23T07:50:04.745Z,69.40
2019-03-23T07:52:35.964Z,69.60
2019-03-23T07:55:16.519Z,65.40
2019-03-23T07:57:47.664Z,66.80
2019-03-23T08:00:19.691Z,66.00
2019-03-23T08:02:51.049Z,63.00
2019-03-23T08:05:22.531Z,66.50
2019-03-23T08:07:53.849Z,64.40
2019-03-23T08:10:30.160Z,69.00
2019-03-23T08:13:01.605Z,67.00
2019-03-23T08:15:32.838Z,65.00
2019-03-23T08:18:04.154Z,65.00
2019-03-23T08:20:35.554Z,84.00
2019-03-23T08:23:06.981Z,73.00
2019-03-23T08:25:38.512Z,62.00
2019-03-23T08:28:11.724Z,67.60
2019-03-23T08:30:43.034Z,70.40
2019-03-23T08:33:14.539Z,68.60
2019-03-23T08:35:45.836Z,69.25
2019-03-23T08:38:17.120Z,69.20
2019-03-23T08:40:48.560Z,71.40
2019-03-23T08:43:19.769Z,70.60
2019-03-23T08:45:50.955Z,71.00
2019-03-23T08:48:22.247Z,72.80
2019-03-23T08:50:53.624Z,74.00
2019-03-23T08:53:25.048Z,70.80
2019-03-23T08:55:56.412Z,72.00
2019-03-23T08:58:31.477Z,79.00
2019-03-23T09:01:02.616Z,69.80
2019-03-23T09:03:34.112Z,69.00
2019-03-23T09:06:05.472Z,74.60
2019-03-23T09:08:37.074Z,75.00
2019-03-23T09:11:08.420Z,73.50
2019-03-23T09:13:40.856Z,75.25
2019-03-23T09:16:12.421Z,72.50
2019-03-23T09:18:43.693Z,72.60
2019-03-23T09:21:15.117Z,73.50
2019-03-23T09:23:46.696Z,74.20
2019-03-23T09:26:17.961Z,75.00
2019-03-23T09:28:49.089Z,76.00
2019-03-23T09:31:20.293Z,75.00
2019-03-23T09:33:51.497Z,73.75
2019-03-23T09:36:23.163Z,74.00
2019-03-23T09:38:54.595Z,72.80
2019-03-23T09:41:25.772Z,75.00
2019-03-23T09:43:57.008Z,74.40
2019-03-23T09:46:28.382Z,75.20
2019-03-23T09:49:00.627Z,74.00
2019-03-23T09:51:32.982Z,77.60
2019-03-23T09:54:04.261Z,76.40
2019-03-23T09:56:35.514Z,79.75
2019-03-23T09:59:06.722Z,75.80
2019-03-23T10:01:38.140Z,73.20
2019-03-23T10:04:09.389Z,80.00
2019-03-23T10:06:40.758Z,76.00
2019-03-23T10:09:12.100Z,80.60
2019-03-23T10:11:43.507Z,77.50
2019-03-23T10:14:14.902Z,80.80
2019-03-23T10:16:46.193Z,80.50
2019-03-23T10:19:17.389Z,79.00
2019-03-23T10:21:48.605Z,79.20
2019-03-23T10:24:19.985Z,81.60
2019-03-23T10:26:52.227Z,79.25
2019-03-23T10:29:23.589Z,86.00
2019-03-23T10:31:55.838Z,82.80
2019-03-23T10:34:27.321Z,82.20
2019-03-23T10:36:58.870Z,79.80
2019-03-23T10:39:30.149Z,80.00
2019-03-23T10:42:01.513Z,78.20
2019-03-23T10:44:32.922Z,82.00
2019-03-23T10:47:04.090Z,75.00
2019-03-23T10:49:35.434Z,81.00
2019-03-23T10:52:06.743Z,78.00
2019-03-23T10:54:37.976Z,77.00
2019-03-23T10:57:09.393Z,78.60
2019-03-23T10:59:40.787Z,76.50
2019-03-23T11:02:12.121Z,81.40
2019-03-23T11:04:43.593Z,79.60
2019-03-23T11:07:15.468Z,81.00
2019-03-23T11:09:46.701Z,80.75
2019-03-23T11:12:17.970Z,77.00
2019-03-23T11:14:49.209Z,78.50
2019-03-23T11:17:20.692Z,76.20
2019-03-23T11:19:51.921Z,74.60
2019-03-23T11:22:23.326Z,72.00
2019-03-23T11:24:54.456Z,73.75
2019-03-23T11:27:25.780Z,71.60
2019-03-23T11:29:56.955Z,73.00
2019-03-23T11:32:28.479Z,63.50
2019-03-23T11:34:59.732Z,67.00
2019-03-23T11:37:31.343Z,66.20
2019-03-23T11:40:02.769Z,65.00
2019-03-23T11:42:34.142Z,65.20
2019-03-23T11:45:05.623Z,67.75
2019-03-23T11:47:36.787Z,62.40
2019-03-23T11:50:07.886Z,67.20
2019-03-23T11:52:40.405Z,64.25
2019-03-23T11:55:11.561Z,69.50
2019-03-23T11:57:43.877Z,64.00
2019-03-23T12:00:16.292Z,73.40
2019-03-23T12:02:47.602Z,61.50
2019-03-23T12:05:18.586Z,69.20
2019-03-23T12:07:49.875Z,67.00
2019-03-23T12:10:21.189Z,66.60
2019-03-23T12:12:52.549Z,62.50
2019-03-23T12:15:23.804Z,65.80
2019-03-23T12:17:55.058Z,66.00
2019-03-23T12:20:26.277Z,67.75
2019-03-23T12:22:57.566Z,66.20
2019-03-23T12:25:28.781Z,61.25
2019-03-23T12:28:00.156Z,65.40
2019-03-23T12:30:31.278Z,62.80
2019-03-23T12:33:02.558Z,70.75
2019-03-23T12:35:33.749Z,63.00
2019-03-23T12:38:05.175Z,62.50
2019-03-23T12:40:36.563Z,65.75
2019-03-23T12:43:08.025Z,64.75
2019-03-23T12:45:39.447Z,62.80
2019-03-23T12:48:10.718Z,61.00
2019-03-23T12:50:42.206Z,60.20
2019-03-23T12:53:13.819Z,64.80
2019-03-23T12:55:45.346Z,58.00
2019-03-23T12:58:16.621Z,61.50
2019-03-23T13:00:47.941Z,55.80
2019-03-23T13:03:19.225Z,59.40
2019-03-23T13:05:50.333Z,56.00
2019-03-23T13:08:21.638Z,54.20
2019-03-23T13:10:52.910Z,58.20
2019-03-23T13:13:24.240Z,53.75
2019-03-23T13:15:55.499Z,47.40
2019-03-23T13:18:27.553Z,50.00
2019-03-23T13:20:58.731Z,53.50
2019-03-23T13:23:30.329Z,42.00
2019-03-23T13:26:01.642Z,41.00
2019-03-23T13:28:33.051Z,44.80
2019-03-23T13:31:04.400Z,48.00
2019-03-23T13:33:35.613Z,43.40
2019-03-23T13:36:07.238Z,46.60
2019-03-23T13:38:38.613Z,39.40
2019-03-23T13:41:10.008Z,46.25
2019-03-23T13:43:41.337Z,38.80
2019-03-23T13:46:12.642Z,41.00
2019-03-23T13:48:44.043Z,37.00
2019-03-23T13:51:15.310Z,41.00
2019-03-23T13:53:47.534Z,38.40
2019-03-23T13:56:18.733Z,30.60
2019-03-23T13:58:50.117Z,34.00
2019-03-23T14:01:21.330Z,38.00
2019-03-23T14:03:52.701Z,34.40
2019-03-23T14:06:23.882Z,41.00
2019-03-23T14:08:55.296Z,33.00
2019-03-23T14:11:26.586Z,37.80
2019-03-23T14:13:58.020Z,35.25
2019-03-23T14:16:29.299Z,31.00
2019-03-23T14:19:00.567Z,29.75
2019-03-23T14:21:31.990Z,23.20
2019-03-23T14:24:03.315Z,22.00
2019-03-23T14:26:34.480Z,28.00
2019-03-23T14:29:05.865Z,23.75
2019-03-23T14:31:37.105Z,28.50
2019-03-23T14:34:08.381Z,21.00
2019-03-23T14:37:06.485Z,22.50
2019-03-23T14:39:37.923Z,24.50
2019-03-23T14:42:09.301Z,28.40
2019-03-23T14:44:40.722Z,25.80
2019-03-23T14:47:12.002Z,26.80
2019-03-23T14:49:43.302Z,20.00
2019-03-23T14:52:14.587Z,20.40
2019-03-23T14:54:45.867Z,18.60
2019-03-23T14:57:17.117Z,27.20
2019-03-23T14:59:48.373Z,18.80
2019-03-23T15:02:19.589Z,19.50
2019-03-23T15:04:50.984Z,20.50
2019-03-23T15:07:23.285Z,17.60
2019-03-23T15:09:54.676Z,27.20
2019-03-23T15:12:25.988Z,17.20
2019-03-23T15:14:57.370Z,15.00
2019-03-23T15:17:28.573Z,18.60
2019-03-23T15:19:59.839Z,18.00
2019-03-23T15:22:31.320Z,23.25
2019-03-23T15:25:03.691Z,15.00
2019-03-23T15:27:34.966Z,21.50
2019-03-23T15:30:06.479Z,18.20
2019-03-23T15:32:37.771Z,20.25
2019-03-23T15:35:09.080Z,20.20
2019-03-23T15:37:40.279Z,17.00
2019-03-23T15:40:11.556Z,14.00
2019-03-23T15:42:42.873Z,15.60
2019-03-23T15:45:14.177Z,29.25
2019-03-23T15:47:45.365Z,20.60
2019-03-23T15:50:16.653Z,25.00
2019-03-23T15:52:48.035Z,30.75
2019-03-23T15:55:19.352Z,30.40
2019-03-23T15:57:50.531Z,31.00
2019-03-23T16:00:21.894Z,32.60
2019-03-23T16:02:53.168Z,30.40
2019-03-23T16:05:24.878Z,34.20
2019-03-23T16:07:56.251Z,33.40
2019-03-23T16:10:27.574Z,31.40
2019-03-23T16:12:58.852Z,33.20
2019-03-23T16:15:30.143Z,39.20
2019-03-23T16:18:01.744Z,37.40
2019-03-23T16:20:33.073Z,31.60
2019-03-23T16:23:04.417Z,34.40
2019-03-23T16:25:35.600Z,37.50
2019-03-23T16:28:06.805Z,27.40
2019-03-23T16:30:38.216Z,30.60
2019-03-23T16:33:09.523Z,29.50
2019-03-23T16:35:40.693Z,32.60
2019-03-23T16:38:12.014Z,29.20
2019-03-23T16:40:43.328Z,36.00
2019-03-23T16:43:14.808Z,33.00
2019-03-23T16:45:46.300Z,29.00
2019-03-23T16:48:17.606Z,39.00
2019-03-23T16:50:48.894Z,39.50
2019-03-23T16:53:20.014Z,41.80
2019-03-23T16:55:51.080Z,38.00
2019-03-23T16:58:22.385Z,30.20
2019-03-23T17:00:53.672Z,31.00
2019-03-23T17:03:25.208Z,31.00
2019-03-23T17:05:56.450Z,39.50
2019-03-23T17:08:27.585Z,41.60
2019-03-23T17:10:58.988Z,35.80
2019-03-23T17:13:30.056Z,33.00
2019-03-23T17:16:01.554Z,37.20
2019-03-23T17:18:32.839Z,43.40
2019-03-23T17:21:04.248Z,41.40
2019-03-23T17:23:35.548Z,48.00
2019-03-23T17:26:06.841Z,40.00
2019-03-23T17:28:38.156Z,39.40
2019-03-23T17:31:09.538Z,45.60
2019-03-23T17:33:40.946Z,41.60
2019-03-23T17:36:12.144Z,48.00
2019-03-23T17:38:43.466Z,48.25
2019-03-23T17:41:14.906Z,44.25
2019-03-23T17:44:13.045Z,44.00
2019-03-23T17:46:44.330Z,49.80
2019-03-23T17:49:15.653Z,52.40
2019-03-23T17:51:46.964Z,43.00
2019-03-23T17:54:18.381Z,50.60
2019-03-23T17:56:49.773Z,49.20
2019-03-23T17:59:20.919Z,49.20
2019-03-23T18:01:52.355Z,51.00
2019-03-23T18:04:23.731Z,51.80
2019-03-23T18:06:54.925Z,50.25
2019-03-23T18:09:26.215Z,50.00
2019-03-23T18:11:57.454Z,43.40
2019-03-23T18:14:28.618Z,54.00
2019-03-23T18:16:59.908Z,44.25
2019-03-23T18:19:31.222Z,49.00
2019-03-23T18:22:02.641Z,52.00
2019-03-23T18:24:33.889Z,51.40
2019-03-23T18:27:05.231Z,44.40
2019-03-23T18:29:36.603Z,50.60
2019-03-23T18:32:07.909Z,52.00
2019-03-23T18:34:39.171Z,54.20
2019-03-23T18:37:10.591Z,57.25
2019-03-23T18:39:41.768Z,55.80
2019-03-23T18:42:13.085Z,56.50
2019-03-23T18:44:44.516Z,51.40
2019-03-23T18:47:15.796Z,53.00
2019-03-23T18:49:47.077Z,55.20
2019-03-23T18:52:18.376Z,60.00
2019-03-23T18:54:49.545Z,53.00
2019-03-23T18:57:20.857Z,50.00
2019-03-23T18:59:53.180Z,52.20
2019-03-23T19:02:24.486Z,60.20
2019-03-23T19:04:55.886Z,53.25
2019-03-23T19:07:27.181Z,53.60
2019-03-23T19:09:58.380Z,58.00
2019-03-23T19:12:29.696Z,56.00
2019-03-23T19:15:00.964Z,53.00
2019-03-23T19:17:32.346Z,55.40
2019-03-23T19:20:03.536Z,56.25
2019-03-23T19:22:34.844Z,59.60
2019-03-23T19:25:15.789Z,58.20
2019-03-23T19:27:39.196Z,49.60
2019-03-23T19:30:10.579Z,53.80
2019-03-23T19:32:42.078Z,52.20
2019-03-23T19:35:13.385Z,51.60
2019-03-23T19:37:44.681Z,55.00
2019-03-23T19:40:15.954Z,50.75
2019-03-23T19:42:47.294Z,54.00
2019-03-23T19:45:18.605Z,50.75
2019-03-23T19:47:50.028Z,50.00
2019-03-23T19:50:21.388Z,46.75
2019-03-23T19:52:52.788Z,44.00
2019-03-23T19:55:23.980Z,43.20
2019-03-23T19:57:55.356Z,42.20
2019-03-23T20:00:26.476Z,48.80
2019-03-23T20:02:57.831Z,48.20
2019-03-23T20:05:29.126Z,50.00
2019-03-23T20:08:00.558Z,47.40
2019-03-23T20:10:31.827Z,54.50
2019-03-23T20:13:03.132Z,55.50
2019-03-23T20:15:34.228Z,39.80
2019-03-23T20:18:05.573Z,48.00
2019-03-23T20:20:36.901Z,47.50
2019-03-23T20:23:08.248Z,49.25
2019-03-23T20:25:39.860Z,54.00
2019-03-23T20:28:11.263Z,53.80
2019-03-23T20:30:42.429Z,48.00
2019-03-23T20:33:19.460Z,47.00
2019-03-23T20:35:46.759Z,46.20
2019-03-23T20:38:18.161Z,51.20
2019-03-23T20:40:49.343Z,47.50
2019-03-23T20:43:20.730Z,47.40
2019-03-23T20:45:52.040Z,54.80
2019-03-23T20:48:23.359Z,47.00
2019-03-23T20:50:54.631Z,51.60
2019-03-23T20:53:25.944Z,51.50
2019-03-23T20:55:57.104Z,52.25
2019-03-23T20:58:28.352Z,54.20
2019-03-23T21:00:59.795Z,59.60
2019-03-23T21:03:31.151Z,64.50
2019-03-23T21:06:02.429Z,59.00
2019-03-23T21:08:33.932Z,55.20
2019-03-23T21:11:05.197Z,54.50
2019-03-23T21:13:36.522Z,52.50
2019-03-23T21:16:07.679Z,53.60
2019-03-23T21:18:39.026Z,48.00
2019-03-23T21:21:10.336Z,46.60
2019-03-23T21:23:41.624Z,39.75
2019-03-23T21:26:13.833Z,50.75
2019-03-23T21:28:45.099Z,39.00
2019-03-23T21:31:16.444Z,37.20
2019-03-23T21:33:47.761Z,42.60
2019-03-23T21:36:19.250Z,35.40
2019-03-23T21:38:50.528Z,40.80
2019-03-23T21:41:21.833Z,34.80
2019-03-23T21:43:53.300Z,28.00
2019-03-23T21:46:24.539Z,29.00
2019-03-23T21:48:55.758Z,31.80
2019-03-23T21:51:27.930Z,22.80
2019-03-23T21:53:59.175Z,30.00
2019-03-23T21:56:30.413Z,25.80
2019-03-23T21:59:01.738Z,32.20
2019-03-23T22:01:33.105Z,33.25
2019-03-23T22:04:05.263Z,32.75
2019-03-23T22:06:36.561Z,36.50
2019-03-23T22:09:08.336Z,31.60
2019-03-23T22:11:39.664Z,40.50
2019-03-23T22:14:10.831Z,34.00
2019-03-23T22:16:42.163Z,30.50
2019-03-23T22:19:13.475Z,37.50
2019-03-23T22:21:44.582Z,35.50
2019-03-23T22:24:15.923Z,35.20
2019-03-23T22:26:47.215Z,39.75
2019-03-23T22:29:18.311Z,45.25
2019-03-23T22:31:49.821Z,48.40
2019-03-23T22:34:21.093Z,39.50
2019-03-23T22:36:52.426Z,35.00
2019-03-23T22:39:23.597Z,34.00
2019-03-23T22:41:54.994Z,31.40
2019-03-23T22:44:26.122Z,22.20
2019-03-23T22:46:57.474Z,22.00
2019-03-23T22:49:28.789Z,28.60
2019-03-23T22:51:59.974Z,20.50
2019-03-23T22:54:31.361Z,15.00
2019-03-23T22:57:02.678Z,16.40
2019-03-23T22:59:34.057Z,17.50
2019-03-23T23:02:05.368Z,16.60
2019-03-23T23:04:37.781Z,22.60
2019-03-23T23:07:08.993Z,14.00
2019-03-23T23:09:40.386Z,17.80
2019-03-23T23:12:11.715Z,14.00
2019-03-23T23:14:44.779Z,15.50
2019-03-23T23:17:16.263Z,11.80
2019-03-23T23:19:47.601Z,13.80
2019-03-23T23:22:19.107Z,13.00
2019-03-23T23:24:50.385Z,14.40
2019-03-23T23:27:21.796Z,12.60
2019-03-23T23:29:53.293Z,10.00
2019-03-23T23:32:25.804Z,14.25
2019-03-23T23:34:57.313Z,14.40
2019-03-23T23:37:28.739Z,21.00
2019-03-23T23:40:00.343Z,19.00
2019-03-23T23:42:31.839Z,14.50
2019-03-23T23:45:03.305Z,19.40
2019-03-23T23:47:34.940Z,13.00
2019-03-23T23:50:06.306Z,13.00
2019-03-23T23:52:37.728Z,14.75
2019-03-23T23:55:09.287Z,9.80
2019-03-23T23:57:40.944Z,13.20
